Time;durP1;ratioP1;P1;durP2;ratioP2;P2;SDS_P1;SDS_P2;PMS_P1;PMS_P2;Temp;Humidity;BMP_temperature;BMP_pressure;BME280_temperature;BME280_humidity;BME280_pressure;Samples;Min_cycle;Max_cycle;Signal;HPM_P1;HPM_P2
2021/12/21 00:06:12;;;;;;;5.95;2.78;;;11.90;53.20;;;;;;20835451;28;20120;-84
2021/12/21 00:16:30;;;;;;;7.25;2.38;;;11.90;53.20;;;;;;20827632;28;20144;-84
2021/12/21 00:26:31;;;;;;;4.70;2.47;;;11.90;53.10;;;;;;20843646;28;20056;-82
2021/12/21 00:36:33;;;;;;;6.97;2.97;;;11.90;53.10;;;;;;20827163;28;20085;-82
2021/12/21 00:46:36;;;;;;;4.10;2.70;;;11.80;53.00;;;;;;20826712;28;20087;-82
2021/12/21 00:56:40;;;;;;;5.45;3.33;;;11.80;53.00;;;;;;20824391;28;20043;-82
2021/12/21 01:06:47;;;;;;;8.13;2.75;;;11.80;52.90;;;;;;20823598;28;20064;-82
2021/12/21 01:17:01;;;;;;;;;;;11.70;52.90;;;;;;20823247;28;20056;-82
2021/12/21 01:37:20;;;;;;;4.82;2.22;;;11.80;52.80;;;;;;20836646;28;20123;-82
2021/12/21 01:57:40;;;;;;;7.88;3.97;;;11.80;52.80;;;;;;20821761;28;20038;-83
2021/12/21 02:07:41;;;;;;;3.25;2.03;;;11.70;52.70;;;;;;20852173;28;20030;-83
2021/12/21 02:18:22;;;;;;;4.43;2.28;;;11.70;52.70;;;;;;20817436;28;20038;-82
2021/12/21 02:38:16;;;;;;;4.00;2.70;;;11.60;52.70;;;;;;20810318;28;20272;-84
2021/12/21 02:48:17;;;;;;;6.83;2.87;;;11.60;52.50;;;;;;20816145;28;20048;-82
2021/12/21 02:58:20;;;;;;;7.20;3.03;;;11.60;52.50;;;;;;20798967;28;20786;-82
2021/12/21 03:08:36;;;;;;;6.47;2.92;;;11.60;52.50;;;;;;20799419;28;20086;-82
2021/12/21 03:18:37;;;;;;;4.95;2.65;;;11.60;52.50;;;;;;20832447;28;20033;-82
2021/12/21 03:28:37;;;;;;;8.77;3.30;;;11.60;52.50;;;;;;20830099;28;20034;-81
2021/12/21 03:38:49;;;;;;;6.22;2.65;;;11.50;52.40;;;;;;20827573;28;20041;-81
2021/12/21 03:48:50;;;;;;;5.63;2.75;;;11.50;52.40;;;;;;20811896;28;20030;-83
2021/12/21 03:58:52;;;;;;;7.53;3.10;;;11.50;52.40;;;;;;20809828;28;20069;-82
2021/12/21 04:08:53;;;;;;;4.07;3.00;;;11.50;52.40;;;;;;20809771;28;20029;-83
2021/12/21 04:18:53;;;;;;;4.32;2.65;;;11.50;52.50;;;;;;20792137;28;20458;-83
2021/12/21 04:28:54;;;;;;;6.45;3.25;;;11.50;52.50;;;;;;20808740;28;20124;-82
2021/12/21 04:38:57;;;;;;;6.82;3.15;;;11.50;52.50;;;;;;20823373;28;20128;-84
2021/12/21 04:48:58;;;;;;;6.97;3.25;;;11.40;52.40;;;;;;20807314;28;20030;-83
2021/12/21 04:58:58;;;;;;;7.47;3.30;;;11.40;52.40;;;;;;20821602;28;20050;-83
2021/12/21 05:09:24;;;;;;;6.17;3.07;;;11.40;52.40;;;;;;20820365;28;20373;-83
2021/12/21 05:19:24;;;;;;;7.85;3.35;;;11.80;52.00;;;;;;20800749;28;20793;-76
2021/12/21 05:29:26;;;;;;;5.43;2.85;;;12.90;49.80;;;;;;20818728;28;20052;-78
2021/12/21 05:39:38;;;;;;;7.38;4.13;;;14.00;47.40;;;;;;20812490;28;20117;-77
2021/12/21 05:49:39;;;;;;;6.53;3.67;;;15.00;45.20;;;;;;20821447;28;20028;-78
2021/12/21 05:59:39;;;;;;;8.07;3.50;;;15.80;43.40;;;;;;20808625;28;20368;-75
2021/12/21 06:09:42;;;;;;;4.80;3.13;;;16.00;42.50;;;;;;20828899;28;20025;-79
2021/12/21 06:30:03;;;;;;;5.47;2.95;;;16.00;41.70;;;;;;20808485;28;20033;-77
2021/12/21 06:40:04;;;;;;;7.53;3.75;;;15.90;42.40;;;;;;20823655;28;20068;-73
2021/12/21 07:00:24;;;;;;;5.10;2.53;;;14.20;44.40;;;;;;20827290;28;20483;-76
2021/12/21 07:10:28;;;;;;;4.65;3.05;;;13.40;45.80;;;;;;20837475;28;20048;-74
2021/12/21 07:20:28;;;;;;;4.20;2.65;;;12.90;47.10;;;;;;20818644;28;20033;-73
2021/12/21 07:30:29;;;;;;;4.72;2.88;;;12.40;48.00;;;;;;20835600;28;20037;-73
2021/12/21 07:40:29;;;;;;;4.87;2.93;;;12.20;48.80;;;;;;20831472;28;20052;-74
2021/12/21 07:50:30;;;;;;;6.47;3.15;;;12.00;49.30;;;;;;20851081;28;20864;-73
2021/12/21 08:00:31;;;;;;;4.32;2.67;;;11.90;49.70;;;;;;20833242;28;20029;-73
2021/12/21 08:10:42;;;;;;;3.57;2.37;;;11.90;50.00;;;;;;20830206;28;20049;-73
2021/12/21 08:20:43;;;;;;;7.35;3.25;;;11.80;50.20;;;;;;20816221;28;20288;-73
2021/12/21 08:30:43;;;;;;;5.32;2.75;;;11.80;50.40;;;;;;20829994;28;20102;-73
2021/12/21 08:40:48;;;;;;;3.70;2.75;;;11.80;50.50;;;;;;20829581;28;20040;-73
2021/12/21 08:50:50;;;;;;;4.63;2.55;;;11.70;50.60;;;;;;20829048;28;20492;-73
2021/12/21 09:00:50;;;;;;;4.72;2.83;;;11.70;50.80;;;;;;20828081;28;20439;-74
2021/12/21 09:10:52;;;;;;;5.72;2.63;;;11.60;51.00;;;;;;20847155;28;20064;-73
2021/12/21 09:20:52;;;;;;;5.38;2.90;;;11.50;51.10;;;;;;20826029;28;20395;-72
2021/12/21 09:30:53;;;;;;;3.42;2.63;;;11.50;51.40;;;;;;20809271;28;20037;-73
2021/12/21 09:40:55;;;;;;;5.10;2.67;;;11.50;51.50;;;;;;20809037;28;20040;-74
2021/12/21 09:50:56;;;;;;;5.30;2.88;;;11.50;51.60;;;;;;20807925;28;20299;-74
2021/12/21 10:00:57;;;;;;;4.38;2.70;;;11.40;51.70;;;;;;20840778;28;20033;-75
2021/12/21 10:10:57;;;;;;;9.25;4.13;;;11.40;51.80;;;;;;20808289;28;20040;-74
2021/12/21 10:20:59;;;;;;;5.47;3.03;;;11.40;51.90;;;;;;20823608;28;20464;-75
2021/12/21 10:31:02;;;;;;;5.93;3.40;;;11.40;52.10;;;;;;20823727;28;20121;-75
2021/12/21 10:41:11;;;;;;;5.85;3.55;;;11.30;52.10;;;;;;20824865;28;20424;-76
2021/12/21 10:51:14;;;;;;;8.52;4.07;;;11.40;52.20;;;;;;20790354;28;20069;-75
2021/12/21 11:01:20;;;;;;;9.52;3.80;;;11.30;52.40;;;;;;20837531;28;20037;-76
2021/12/21 11:11:22;;;;;;;8.20;3.88;;;11.30;52.60;;;;;;20820925;28;20398;-75
2021/12/21 11:31:45;;;;;;;9.27;4.57;;;13.10;49.40;;;;;;20947149;22;20050;-75
2021/12/21 11:41:46;;;;;;;7.57;3.53;;;14.10;47.20;;;;;;20785623;28;20037;-78
2021/12/21 11:51:46;;;;;;;7.33;4.40;;;14.90;45.40;;;;;;20803028;28;20076;-78
2021/12/21 12:01:47;;;;;;;8.45;4.40;;;15.70;43.70;;;;;;20800623;28;20812;-75
2021/12/21 12:11:47;;;;;;;5.28;3.55;;;16.10;42.70;;;;;;20798235;28;20145;-74
2021/12/21 12:21:59;;;;;;;7.00;4.45;;;16.20;42.30;;;;;;20793657;28;20131;-74
2021/12/21 12:32:06;;;;;;;10.70;4.30;;;16.10;42.20;;;;;;20725070;28;20053;-75
2021/12/21 12:42:12;;;;;;;8.85;4.53;;;15.80;42.40;;;;;;20759121;28;20120;-82
2021/12/21 12:52:24;;;;;;;9.13;4.43;;;15.00;43.80;;;;;;20810361;28;20136;-77
2021/12/21 13:02:26;;;;;;;8.07;4.45;;;14.20;45.30;;;;;;20798778;28;20446;-83
2021/12/21 13:12:26;;;;;;;6.50;3.53;;;13.50;46.60;;;;;;20813745;28;20045;-78
2021/12/21 13:22:27;;;;;;;6.32;3.53;;;13.00;47.60;;;;;;20793606;28;20368;-82
2021/12/21 13:32:32;;;;;;;5.95;2.97;;;12.80;48.50;;;;;;20821881;28;20487;-76
2021/12/21 13:42:33;;;;;;;6.28;3.35;;;12.60;49.10;;;;;;20795135;28;20498;-81
2021/12/21 13:52:42;;;;;;;6.18;3.10;;;12.50;49.40;;;;;;20784571;28;20120;-78
2021/12/21 14:02:50;;;;;;;6.10;3.83;;;12.50;49.50;;;;;;20826234;28;20121;-81
2021/12/21 14:13:00;;;;;;;5.00;2.70;;;12.50;49.60;;;;;;20776461;28;20133;-73
2021/12/21 14:23:01;;;;;;;4.68;2.92;;;12.60;49.60;;;;;;20774352;28;20364;-75
2021/12/21 14:33:20;;;;;;;5.63;2.78;;;12.60;49.60;;;;;;20775869;28;20049;-74
2021/12/21 14:43:30;;;;;;;8.98;3.63;;;12.70;49.80;;;;;;20809932;28;20076;-75
2021/12/21 14:53:42;;;;;;;6.20;3.72;;;12.50;50.10;;;;;;20821496;28;20033;-76
2021/12/21 15:03:42;;;;;;;5.78;2.97;;;12.40;50.40;;;;;;20823620;28;20037;-75
2021/12/21 15:13:43;;;;;;;10.35;4.38;;;12.30;50.80;;;;;;20787426;28;20598;-74
2021/12/21 15:23:44;;;;;;;6.97;3.80;;;12.10;51.00;;;;;;20804299;28;20617;-75
2021/12/21 15:33:44;;;;;;;6.88;3.83;;;12.00;51.20;;;;;;20785633;28;20664;-75
2021/12/21 15:43:45;;;;;;;10.25;3.92;;;12.00;51.40;;;;;;20785287;28;20026;-75
2021/12/21 15:53:47;;;;;;;5.50;3.28;;;12.70;50.20;;;;;;20783850;28;20033;-74
2021/12/21 16:03:47;;;;;;;6.13;3.20;;;13.60;48.20;;;;;;20800505;28;20061;-77
2021/12/21 16:13:48;;;;;;;7.70;3.22;;;14.50;46.40;;;;;;20816849;28;20466;-75
2021/12/21 16:23:48;;;;;;;4.60;2.33;;;15.30;44.70;;;;;;20809332;28;20068;-75
2021/12/21 16:33:51;;;;;;;5.65;3.28;;;15.90;43.50;;;;;;20793418;28;20083;-78
2021/12/21 16:43:59;;;;;;;6.72;2.95;;;16.00;42.90;;;;;;20795459;28;20034;-81
2021/12/21 16:53:59;;;;;;;5.97;3.63;;;16.00;42.60;;;;;;20750598;28;20434;-79
2021/12/21 17:04:00;;;;;;;5.38;3.08;;;15.50;43.10;;;;;;20779645;28;20053;-77
2021/12/21 17:14:01;;;;;;;5.28;3.53;;;14.70;44.60;;;;;;20795999;28;20041;-78
2021/12/21 17:24:02;;;;;;;5.72;3.67;;;13.80;46.10;;;;;;20820392;28;20034;-77
2021/12/21 17:34:06;;;;;;;4.97;2.78;;;13.20;47.40;;;;;;20743133;28;20111;-71
2021/12/21 17:44:06;;;;;;;5.63;3.20;;;12.80;48.40;;;;;;20742819;28;20515;-75
2021/12/21 17:54:07;;;;;;;5.45;3.20;;;12.50;49.20;;;;;;20805591;28;20088;-72
2021/12/21 18:04:07;;;;;;;5.60;2.80;;;12.30;49.70;;;;;;20873729;28;20035;-72
2021/12/21 18:14:08;;;;;;;4.68;2.85;;;12.30;50.10;;;;;;20872802;28;20067;-72
2021/12/21 18:24:09;;;;;;;4.60;2.65;;;12.30;50.30;;;;;;20892037;28;20037;-74
2021/12/21 18:34:10;;;;;;;4.70;2.60;;;12.30;50.30;;;;;;20903370;28;20070;-74
2021/12/21 18:44:10;;;;;;;3.80;2.40;;;12.30;50.30;;;;;;20870046;28;20138;-74
2021/12/21 18:54:11;;;;;;;4.28;2.47;;;12.30;50.20;;;;;;20901688;28;20287;-74
2021/12/21 19:04:12;;;;;;;5.45;2.85;;;12.40;50.20;;;;;;20852560;28;20468;-75
2021/12/21 19:14:12;;;;;;;5.25;2.70;;;12.50;50.10;;;;;;20752476;28;20136;-75
2021/12/21 19:24:13;;;;;;;3.95;2.13;;;12.50;50.10;;;;;;20779914;28;20033;-75
2021/12/21 19:34:13;;;;;;;5.10;2.43;;;12.50;50.10;;;;;;20819687;28;20041;-74
2021/12/21 19:44:15;;;;;;;3.63;2.15;;;12.50;50.20;;;;;;20703778;28;20342;-82
2021/12/21 19:54:16;;;;;;;4.80;2.25;;;12.40;50.10;;;;;;20719419;28;20052;-82
2021/12/21 20:04:18;;;;;;;4.85;2.10;;;12.40;50.10;;;;;;20719027;28;20094;-83
2021/12/21 20:14:23;;;;;;;4.35;2.67;;;12.40;50.20;;;;;;20728696;28;20699;-84
2021/12/21 20:24:24;;;;;;;3.35;2.17;;;12.40;50.20;;;;;;20774731;28;20098;-80
2021/12/21 20:34:30;;;;;;;6.35;2.28;;;12.40;50.20;;;;;;20796223;28;20041;-81
2021/12/21 20:44:31;;;;;;;4.28;2.20;;;12.40;50.20;;;;;;20798364;28;20068;-79
2021/12/21 20:54:32;;;;;;;3.63;1.95;;;12.40;50.30;;;;;;20807801;28;20064;-78
2021/12/21 21:04:32;;;;;;;3.37;2.03;;;12.30;50.20;;;;;;20778607;28;20065;-80
2021/12/21 21:14:33;;;;;;;4.78;2.33;;;12.30;50.20;;;;;;20793787;28;20292;-78
2021/12/21 21:24:35;;;;;;;3.38;2.13;;;12.40;50.30;;;;;;20793498;28;20140;-79
2021/12/21 21:34:37;;;;;;;3.75;2.17;;;12.20;50.20;;;;;;20809503;28;20065;-79
2021/12/21 21:44:38;;;;;;;2.88;1.75;;;12.30;50.20;;;;;;20776085;28;20120;-79
2021/12/21 21:54:38;;;;;;;3.40;1.95;;;12.30;50.30;;;;;;20774822;28;20056;-80
2021/12/21 22:04:39;;;;;;;2.95;1.73;;;12.30;50.30;;;;;;20775010;28;20029;-79
2021/12/21 22:14:39;;;;;;;2.88;2.03;;;12.20;50.20;;;;;;20807407;28;20037;-79
2021/12/21 22:24:40;;;;;;;3.42;2.00;;;12.20;50.20;;;;;;20774416;28;20059;-78
2021/12/21 22:34:40;;;;;;;4.30;2.40;;;12.30;50.30;;;;;;20789742;28;20391;-78
2021/12/21 22:44:41;;;;;;;3.55;1.92;;;12.20;50.30;;;;;;20789640;28;20069;-81
2021/12/21 22:54:42;;;;;;;3.75;2.08;;;12.20;50.30;;;;;;20799269;28;20049;-79
2021/12/21 23:04:42;;;;;;;4.27;1.93;;;12.20;50.30;;;;;;20820497;28;20065;-79
2021/12/21 23:14:45;;;;;;;3.53;2.22;;;12.20;50.40;;;;;;20803196;28;20299;-80
2021/12/21 23:24:46;;;;;;;4.65;2.38;;;12.20;50.40;;;;;;20787108;28;20484;-80
2021/12/21 23:34:46;;;;;;;6.70;2.72;;;12.10;50.40;;;;;;20817592;28;20026;-78
2021/12/21 23:44:47;;;;;;;3.85;2.17;;;12.10;50.40;;;;;;20784433;28;20038;-80
2021/12/21 23:54:48;;;;;;;4.25;2.13;;;12.20;50.50;;;;;;20799554;28;20033;-78
